sensor_id;sensor_type;location;lat;lon;timestamp;P1;durP1;ratioP1;P2;durP2;ratioP2
8478;SDS011;4276;49.354;6.804;2023-10-08T00:01:16;6.63;;;5.20;;
8478;SDS011;4276;49.354;6.804;2023-10-08T00:03:45;6.60;;;5.13;;
8478;SDS011;4276;49.354;6.804;2023-10-08T00:06:20;5.13;;;4.68;;
8478;SDS011;4276;49.354;6.804;2023-10-08T00:08:48;4.82;;;4.32;;
8478;SDS011;4276;49.354;6.804;2023-10-08T00:11:21;5.20;;;3.85;;
8478;SDS011;4276;49.354;6.804;2023-10-08T00:13:51;4.47;;;4.05;;
8478;SDS011;4276;49.354;6.804;2023-10-08T00:16:30;4.88;;;4.38;;
8478;SDS011;4276;49.354;6.804;2023-10-08T00:19:05;4.40;;;4.00;;
8478;SDS011;4276;49.354;6.804;2023-10-08T00:21:35;4.40;;;3.83;;
8478;SDS011;4276;49.354;6.804;2023-10-08T00:24:11;4.97;;;4.50;;
8478;SDS011;4276;49.354;6.804;2023-10-08T00:26:43;4.18;;;3.78;;
8478;SDS011;4276;49.354;6.804;2023-10-08T00:29:16;4.25;;;3.95;;
8478;SDS011;4276;49.354;6.804;2023-10-08T00:31:49;5.47;;;4.13;;
8478;SDS011;4276;49.354;6.804;2023-10-08T00:34:23;3.90;;;3.60;;
8478;SDS011;4276;49.354;6.804;2023-10-08T00:37:00;4.72;;;4.28;;
8478;SDS011;4276;49.354;6.804;2023-10-08T00:39:27;4.57;;;3.95;;
8478;SDS011;4276;49.354;6.804;2023-10-08T00:42:00;4.32;;;3.60;;
8478;SDS011;4276;49.354;6.804;2023-10-08T00:44:30;4.05;;;3.75;;
8478;SDS011;4276;49.354;6.804;2023-10-08T00:47:04;3.78;;;3.47;;
8478;SDS011;4276;49.354;6.804;2023-10-08T00:49:35;5.13;;;3.90;;
8478;SDS011;4276;49.354;6.804;2023-10-08T00:52:12;4.47;;;4.00;;
8478;SDS011;4276;49.354;6.804;2023-10-08T00:54:42;4.50;;;4.10;;
8478;SDS011;4276;49.354;6.804;2023-10-08T00:57:35;3.58;;;3.28;;
8478;SDS011;4276;49.354;6.804;2023-10-08T01:00:04;4.05;;;3.65;;
8478;SDS011;4276;49.354;6.804;2023-10-08T01:02:35;4.35;;;3.95;;
8478;SDS011;4276;49.354;6.804;2023-10-08T01:05:27;4.45;;;3.83;;
8478;SDS011;4276;49.354;6.804;2023-10-08T01:08:09;4.28;;;3.88;;
8478;SDS011;4276;49.354;6.804;2023-10-08T01:10:39;3.92;;;3.53;;
8478;SDS011;4276;49.354;6.804;2023-10-08T01:13:30;5.28;;;4.07;;
8478;SDS011;4276;49.354;6.804;2023-10-08T01:16:06;4.32;;;3.92;;
8478;SDS011;4276;49.354;6.804;2023-10-08T01:18:38;6.43;;;3.75;;
8478;SDS011;4276;49.354;6.804;2023-10-08T01:21:12;4.45;;;3.80;;
8478;SDS011;4276;49.354;6.804;2023-10-08T01:23:55;5.20;;;4.05;;
8478;SDS011;4276;49.354;6.804;2023-10-08T01:26:22;4.00;;;3.70;;
8478;SDS011;4276;49.354;6.804;2023-10-08T01:28:52;4.47;;;3.60;;
8478;SDS011;4276;49.354;6.804;2023-10-08T01:31:19;6.40;;;5.28;;
8478;SDS011;4276;49.354;6.804;2023-10-08T01:33:49;6.28;;;5.68;;
8478;SDS011;4276;49.354;6.804;2023-10-08T01:36:20;10.25;;;9.10;;
8478;SDS011;4276;49.354;6.804;2023-10-08T01:38:51;9.35;;;8.45;;
8478;SDS011;4276;49.354;6.804;2023-10-08T01:41:18;10.02;;;8.68;;
8478;SDS011;4276;49.354;6.804;2023-10-08T01:43:50;11.30;;;9.25;;
8478;SDS011;4276;49.354;6.804;2023-10-08T01:46:18;6.22;;;5.63;;
8478;SDS011;4276;49.354;6.804;2023-10-08T01:48:51;5.43;;;4.93;;
8478;SDS011;4276;49.354;6.804;2023-10-08T01:51:30;5.65;;;4.53;;
8478;SDS011;4276;49.354;6.804;2023-10-08T01:54:13;4.22;;;3.92;;
8478;SDS011;4276;49.354;6.804;2023-10-08T01:56:41;4.85;;;3.83;;
8478;SDS011;4276;49.354;6.804;2023-10-08T01:59:30;5.30;;;3.88;;
8478;SDS011;4276;49.354;6.804;2023-10-08T02:01:57;4.15;;;3.83;;
8478;SDS011;4276;49.354;6.804;2023-10-08T02:04:24;5.22;;;3.83;;
8478;SDS011;4276;49.354;6.804;2023-10-08T02:06:57;3.75;;;3.45;;
8478;SDS011;4276;49.354;6.804;2023-10-08T02:09:26;5.43;;;4.38;;
8478;SDS011;4276;49.354;6.804;2023-10-08T02:11:53;4.93;;;4.30;;
8478;SDS011;4276;49.354;6.804;2023-10-08T02:14:20;4.10;;;3.80;;
8478;SDS011;4276;49.354;6.804;2023-10-08T02:16:49;5.30;;;4.28;;
8478;SDS011;4276;49.354;6.804;2023-10-08T02:19:21;4.07;;;3.78;;
8478;SDS011;4276;49.354;6.804;2023-10-08T02:21:56;4.57;;;4.05;;
8478;SDS011;4276;49.354;6.804;2023-10-08T02:24:26;4.70;;;4.07;;
8478;SDS011;4276;49.354;6.804;2023-10-08T02:26:53;5.05;;;4.07;;
8478;SDS011;4276;49.354;6.804;2023-10-08T02:29:28;4.50;;;4.00;;
8478;SDS011;4276;49.354;6.804;2023-10-08T02:31:59;4.53;;;4.07;;
8478;SDS011;4276;49.354;6.804;2023-10-08T02:34:27;4.43;;;4.10;;
8478;SDS011;4276;49.354;6.804;2023-10-08T02:36:56;4.65;;;4.15;;
8478;SDS011;4276;49.354;6.804;2023-10-08T02:39:23;4.75;;;4.32;;
8478;SDS011;4276;49.354;6.804;2023-10-08T02:41:59;5.13;;;4.60;;
8478;SDS011;4276;49.354;6.804;2023-10-08T02:44:33;4.82;;;4.40;;
8478;SDS011;4276;49.354;6.804;2023-10-08T02:46:59;4.97;;;4.55;;
8478;SDS011;4276;49.354;6.804;2023-10-08T02:49:30;4.78;;;4.07;;
8478;SDS011;4276;49.354;6.804;2023-10-08T02:51:58;4.97;;;4.25;;
8478;SDS011;4276;49.354;6.804;2023-10-08T02:54:27;4.47;;;4.07;;
8478;SDS011;4276;49.354;6.804;2023-10-08T02:57:05;4.38;;;3.90;;
8478;SDS011;4276;49.354;6.804;2023-10-08T02:59:37;4.00;;;3.70;;
8478;SDS011;4276;49.354;6.804;2023-10-08T03:02:08;5.00;;;4.55;;
8478;SDS011;4276;49.354;6.804;2023-10-08T03:04:58;4.60;;;3.75;;
8478;SDS011;4276;49.354;6.804;2023-10-08T03:07:25;4.10;;;3.63;;
8478;SDS011;4276;49.354;6.804;2023-10-08T03:10:04;4.07;;;3.78;;
8478;SDS011;4276;49.354;6.804;2023-10-08T03:12:35;4.20;;;3.60;;
8478;SDS011;4276;49.354;6.804;2023-10-08T03:15:03;3.70;;;3.40;;
8478;SDS011;4276;49.354;6.804;2023-10-08T03:17:41;3.95;;;3.65;;
8478;SDS011;4276;49.354;6.804;2023-10-08T03:20:15;3.75;;;3.45;;
8478;SDS011;4276;49.354;6.804;2023-10-08T03:22:56;3.92;;;3.60;;
8478;SDS011;4276;49.354;6.804;2023-10-08T03:25:26;3.58;;;3.28;;
8478;SDS011;4276;49.354;6.804;2023-10-08T03:27:56;4.20;;;3.63;;
8478;SDS011;4276;49.354;6.804;2023-10-08T03:30:25;4.25;;;3.78;;
8478;SDS011;4276;49.354;6.804;2023-10-08T03:32:55;4.60;;;3.65;;
8478;SDS011;4276;49.354;6.804;2023-10-08T03:35:22;4.63;;;3.83;;
8478;SDS011;4276;49.354;6.804;2023-10-08T03:37:57;5.32;;;3.90;;
8478;SDS011;4276;49.354;6.804;2023-10-08T03:40:51;4.28;;;3.97;;
8478;SDS011;4276;49.354;6.804;2023-10-08T03:43:24;4.68;;;4.28;;
8478;SDS011;4276;49.354;6.804;2023-10-08T03:46:00;4.63;;;4.22;;
8478;SDS011;4276;49.354;6.804;2023-10-08T03:48:32;6.43;;;4.72;;
8478;SDS011;4276;49.354;6.804;2023-10-08T03:51:03;4.85;;;4.45;;
8478;SDS011;4276;49.354;6.804;2023-10-08T03:53:33;5.00;;;4.50;;
8478;SDS011;4276;49.354;6.804;2023-10-08T03:56:09;4.60;;;4.20;;
8478;SDS011;4276;49.354;6.804;2023-10-08T03:58:37;4.80;;;4.38;;
8478;SDS011;4276;49.354;6.804;2023-10-08T04:01:08;4.65;;;4.20;;
8478;SDS011;4276;49.354;6.804;2023-10-08T04:03:35;4.53;;;4.13;;
8478;SDS011;4276;49.354;6.804;2023-10-08T04:06:20;4.28;;;3.90;;
8478;SDS011;4276;49.354;6.804;2023-10-08T04:08:57;4.82;;;3.80;;
8478;SDS011;4276;49.354;6.804;2023-10-08T04:11:35;7.07;;;3.85;;
8478;SDS011;4276;49.354;6.804;2023-10-08T04:14:08;3.83;;;3.50;;
8478;SDS011;4276;49.354;6.804;2023-10-08T04:16:34;3.70;;;3.40;;
8478;SDS011;4276;49.354;6.804;2023-10-08T04:19:04;4.35;;;3.95;;
8478;SDS011;4276;49.354;6.804;2023-10-08T04:21:31;3.70;;;3.30;;
8478;SDS011;4276;49.354;6.804;2023-10-08T04:24:00;4.55;;;3.90;;
8478;SDS011;4276;49.354;6.804;2023-10-08T04:26:30;4.32;;;4.00;;
8478;SDS011;4276;49.354;6.804;2023-10-08T04:28:59;9.80;;;8.02;;
8478;SDS011;4276;49.354;6.804;2023-10-08T04:31:33;6.32;;;5.72;;
8478;SDS011;4276;49.354;6.804;2023-10-08T04:34:04;7.03;;;6.32;;
8478;SDS011;4276;49.354;6.804;2023-10-08T04:36:43;6.35;;;5.10;;
8478;SDS011;4276;49.354;6.804;2023-10-08T04:39:14;5.10;;;4.68;;
8478;SDS011;4276;49.354;6.804;2023-10-08T04:41:52;4.78;;;4.10;;
8478;SDS011;4276;49.354;6.804;2023-10-08T04:44:25;5.22;;;4.72;;
8478;SDS011;4276;49.354;6.804;2023-10-08T04:46:52;5.20;;;4.70;;
8478;SDS011;4276;49.354;6.804;2023-10-08T04:49:21;4.72;;;4.32;;
8478;SDS011;4276;49.354;6.804;2023-10-08T04:54:31;6.03;;;4.75;;
8478;SDS011;4276;49.354;6.804;2023-10-08T04:57:01;4.47;;;4.07;;
8478;SDS011;4276;49.354;6.804;2023-10-08T04:59:31;4.32;;;3.90;;
8478;SDS011;4276;49.354;6.804;2023-10-08T05:02:03;4.22;;;3.83;;
8478;SDS011;4276;49.354;6.804;2023-10-08T05:04:49;4.00;;;3.70;;
8478;SDS011;4276;49.354;6.804;2023-10-08T05:07:35;4.18;;;3.70;;
8478;SDS011;4276;49.354;6.804;2023-10-08T05:10:14;4.35;;;3.67;;
8478;SDS011;4276;49.354;6.804;2023-10-08T05:12:50;5.03;;;4.63;;
8478;SDS011;4276;49.354;6.804;2023-10-08T05:15:32;6.05;;;4.75;;
8478;SDS011;4276;49.354;6.804;2023-10-08T05:18:16;4.70;;;4.20;;
8478;SDS011;4276;49.354;6.804;2023-10-08T05:20:50;4.80;;;4.10;;
8478;SDS011;4276;49.354;6.804;2023-10-08T05:23:19;5.28;;;4.38;;
8478;SDS011;4276;49.354;6.804;2023-10-08T05:25:47;4.53;;;4.15;;
8478;SDS011;4276;49.354;6.804;2023-10-08T05:28:32;4.45;;;4.00;;
8478;SDS011;4276;49.354;6.804;2023-10-08T05:31:28;4.60;;;4.20;;
8478;SDS011;4276;49.354;6.804;2023-10-08T05:34:19;6.07;;;4.55;;
8478;SDS011;4276;49.354;6.804;2023-10-08T05:37:09;6.75;;;3.80;;
8478;SDS011;4276;49.354;6.804;2023-10-08T05:40:03;4.30;;;3.90;;
8478;SDS011;4276;49.354;6.804;2023-10-08T05:42:44;4.15;;;3.80;;
8478;SDS011;4276;49.354;6.804;2023-10-08T05:45:16;3.85;;;3.55;;
8478;SDS011;4276;49.354;6.804;2023-10-08T05:47:58;4.75;;;3.70;;
8478;SDS011;4276;49.354;6.804;2023-10-08T05:50:40;5.13;;;4.40;;
8478;SDS011;4276;49.354;6.804;2023-10-08T05:53:21;4.75;;;4.35;;
8478;SDS011;4276;49.354;6.804;2023-10-08T05:56:10;4.50;;;4.20;;
8478;SDS011;4276;49.354;6.804;2023-10-08T05:58:55;4.43;;;4.05;;
8478;SDS011;4276;49.354;6.804;2023-10-08T06:01:41;4.70;;;3.97;;
8478;SDS011;4276;49.354;6.804;2023-10-08T06:04:08;5.90;;;4.28;;
8478;SDS011;4276;49.354;6.804;2023-10-08T06:06:57;6.22;;;5.57;;
8478;SDS011;4276;49.354;6.804;2023-10-08T06:09:38;20.73;;;13.05;;
8478;SDS011;4276;49.354;6.804;2023-10-08T06:12:06;21.75;;;14.70;;
8478;SDS011;4276;49.354;6.804;2023-10-08T06:14:46;11.38;;;9.23;;
8478;SDS011;4276;49.354;6.804;2023-10-08T06:17:31;10.00;;;7.07;;
8478;SDS011;4276;49.354;6.804;2023-10-08T06:20:01;6.47;;;5.65;;
8478;SDS011;4276;49.354;6.804;2023-10-08T06:22:36;6.57;;;5.97;;
8478;SDS011;4276;49.354;6.804;2023-10-08T06:25:03;5.32;;;4.90;;
8478;SDS011;4276;49.354;6.804;2023-10-08T06:27:43;6.35;;;5.70;;
8478;SDS011;4276;49.354;6.804;2023-10-08T06:30:13;5.93;;;5.43;;
8478;SDS011;4276;49.354;6.804;2023-10-08T06:32:43;6.38;;;5.22;;
8478;SDS011;4276;49.354;6.804;2023-10-08T06:35:11;6.28;;;5.68;;
8478;SDS011;4276;49.354;6.804;2023-10-08T06:37:47;6.88;;;6.22;;
8478;SDS011;4276;49.354;6.804;2023-10-08T06:40:17;7.43;;;6.05;;
8478;SDS011;4276;49.354;6.804;2023-10-08T06:43:07;7.50;;;6.30;;
8478;SDS011;4276;49.354;6.804;2023-10-08T06:45:48;6.65;;;6.05;;
8478;SDS011;4276;49.354;6.804;2023-10-08T06:48:19;6.30;;;5.75;;
8478;SDS011;4276;49.354;6.804;2023-10-08T06:50:56;6.88;;;6.18;;
8478;SDS011;4276;49.354;6.804;2023-10-08T06:53:33;6.63;;;6.03;;
8478;SDS011;4276;49.354;6.804;2023-10-08T06:56:00;7.90;;;7.15;;
8478;SDS011;4276;49.354;6.804;2023-10-08T06:58:31;8.43;;;7.72;;
8478;SDS011;4276;49.354;6.804;2023-10-08T07:01:00;8.70;;;7.90;;
8478;SDS011;4276;49.354;6.804;2023-10-08T07:03:35;9.30;;;8.23;;
8478;SDS011;4276;49.354;6.804;2023-10-08T07:06:05;8.90;;;8.10;;
8478;SDS011;4276;49.354;6.804;2023-10-08T07:08:52;8.45;;;7.65;;
8478;SDS011;4276;49.354;6.804;2023-10-08T07:11:22;9.10;;;8.20;;
8478;SDS011;4276;49.354;6.804;2023-10-08T07:13:53;8.73;;;7.53;;
8478;SDS011;4276;49.354;6.804;2023-10-08T07:16:19;9.15;;;8.23;;
8478;SDS011;4276;49.354;6.804;2023-10-08T07:18:47;9.30;;;8.40;;
8478;SDS011;4276;49.354;6.804;2023-10-08T07:21:21;10.40;;;8.07;;
8478;SDS011;4276;49.354;6.804;2023-10-08T07:24:12;10.18;;;7.82;;
8478;SDS011;4276;49.354;6.804;2023-10-08T07:26:43;11.30;;;7.68;;
8478;SDS011;4276;49.354;6.804;2023-10-08T07:29:13;8.63;;;7.78;;
8478;SDS011;4276;49.354;6.804;2023-10-08T07:31:44;8.20;;;7.40;;
8478;SDS011;4276;49.354;6.804;2023-10-08T07:34:19;7.88;;;7.13;;
8478;SDS011;4276;49.354;6.804;2023-10-08T07:36:57;7.97;;;7.18;;
8478;SDS011;4276;49.354;6.804;2023-10-08T07:39:24;9.05;;;8.10;;
8478;SDS011;4276;49.354;6.804;2023-10-08T07:41:51;7.65;;;6.95;;
8478;SDS011;4276;49.354;6.804;2023-10-08T07:44:20;7.18;;;6.47;;
8478;SDS011;4276;49.354;6.804;2023-10-08T07:46:48;7.20;;;6.60;;
8478;SDS011;4276;49.354;6.804;2023-10-08T07:49:17;8.20;;;7.00;;
8478;SDS011;4276;49.354;6.804;2023-10-08T07:51:43;7.60;;;6.90;;
8478;SDS011;4276;49.354;6.804;2023-10-08T07:54:23;9.13;;;7.55;;
8478;SDS011;4276;49.354;6.804;2023-10-08T07:57:03;8.32;;;7.30;;
8478;SDS011;4276;49.354;6.804;2023-10-08T07:59:41;8.57;;;7.68;;
8478;SDS011;4276;49.354;6.804;2023-10-08T08:02:13;8.25;;;7.45;;
8478;SDS011;4276;49.354;6.804;2023-10-08T08:04:41;7.10;;;6.47;;
8478;SDS011;4276;49.354;6.804;2023-10-08T08:07:12;7.60;;;6.90;;
8478;SDS011;4276;49.354;6.804;2023-10-08T08:09:49;7.97;;;7.28;;
8478;SDS011;4276;49.354;6.804;2023-10-08T08:12:25;8.00;;;7.20;;
8478;SDS011;4276;49.354;6.804;2023-10-08T08:14:55;10.25;;;7.72;;
8478;SDS011;4276;49.354;6.804;2023-10-08T08:17:21;8.02;;;7.22;;
8478;SDS011;4276;49.354;6.804;2023-10-08T08:19:51;7.18;;;6.47;;
8478;SDS011;4276;49.354;6.804;2023-10-08T08:22:19;7.88;;;6.72;;
8478;SDS011;4276;49.354;6.804;2023-10-08T08:24:57;7.88;;;6.22;;
8478;SDS011;4276;49.354;6.804;2023-10-08T08:27:42;7.38;;;6.70;;
8478;SDS011;4276;49.354;6.804;2023-10-08T08:30:19;6.85;;;6.20;;
8478;SDS011;4276;49.354;6.804;2023-10-08T08:32:46;7.10;;;6.40;;
8478;SDS011;4276;49.354;6.804;2023-10-08T08:35:19;6.57;;;5.93;;
8478;SDS011;4276;49.354;6.804;2023-10-08T08:37:46;7.55;;;6.65;;
8478;SDS011;4276;49.354;6.804;2023-10-08T08:40:13;6.75;;;6.07;;
8478;SDS011;4276;49.354;6.804;2023-10-08T08:42:50;6.72;;;6.03;;
8478;SDS011;4276;49.354;6.804;2023-10-08T08:45:21;7.15;;;6.05;;
8478;SDS011;4276;49.354;6.804;2023-10-08T08:47:48;6.57;;;5.90;;
8478;SDS011;4276;49.354;6.804;2023-10-08T08:50:19;7.57;;;6.68;;
8478;SDS011;4276;49.354;6.804;2023-10-08T08:52:48;7.20;;;6.50;;
8478;SDS011;4276;49.354;6.804;2023-10-08T08:55:14;7.28;;;6.68;;
8478;SDS011;4276;49.354;6.804;2023-10-08T08:57:44;8.98;;;7.97;;
8478;SDS011;4276;49.354;6.804;2023-10-08T09:00:18;8.05;;;7.25;;
8478;SDS011;4276;49.354;6.804;2023-10-08T09:02:52;8.57;;;7.70;;
8478;SDS011;4276;49.354;6.804;2023-10-08T09:05:19;7.35;;;6.65;;
8478;SDS011;4276;49.354;6.804;2023-10-08T09:10:25;6.63;;;6.03;;
8478;SDS011;4276;49.354;6.804;2023-10-08T09:12:56;9.85;;;6.35;;
8478;SDS011;4276;49.354;6.804;2023-10-08T09:15:25;6.32;;;5.72;;
8478;SDS011;4276;49.354;6.804;2023-10-08T09:17:53;6.25;;;5.30;;
8478;SDS011;4276;49.354;6.804;2023-10-08T09:20:21;5.82;;;5.32;;
8478;SDS011;4276;49.354;6.804;2023-10-08T09:23:08;5.63;;;5.07;;
8478;SDS011;4276;49.354;6.804;2023-10-08T09:25:38;7.80;;;6.13;;
8478;SDS011;4276;49.354;6.804;2023-10-08T09:28:09;6.25;;;5.65;;
8478;SDS011;4276;49.354;6.804;2023-10-08T09:30:39;6.40;;;5.82;;
8478;SDS011;4276;49.354;6.804;2023-10-08T09:33:10;6.13;;;5.53;;
8478;SDS011;4276;49.354;6.804;2023-10-08T09:35:38;8.35;;;5.60;;
8478;SDS011;4276;49.354;6.804;2023-10-08T09:38:06;6.30;;;5.70;;
8478;SDS011;4276;49.354;6.804;2023-10-08T09:40:36;8.32;;;6.97;;
8478;SDS011;4276;49.354;6.804;2023-10-08T09:43:04;9.63;;;7.63;;
8478;SDS011;4276;49.354;6.804;2023-10-08T09:45:31;10.38;;;7.47;;
8478;SDS011;4276;49.354;6.804;2023-10-08T09:47:59;9.13;;;7.10;;
8478;SDS011;4276;49.354;6.804;2023-10-08T09:50:32;7.88;;;7.10;;
8478;SDS011;4276;49.354;6.804;2023-10-08T09:55:46;8.82;;;7.93;;
8478;SDS011;4276;49.354;6.804;2023-10-08T09:58:21;10.70;;;8.25;;
8478;SDS011;4276;49.354;6.804;2023-10-08T10:00:49;9.50;;;8.60;;
8478;SDS011;4276;49.354;6.804;2023-10-08T10:03:16;10.90;;;8.80;;
8478;SDS011;4276;49.354;6.804;2023-10-08T10:05:45;10.18;;;8.70;;
8478;SDS011;4276;49.354;6.804;2023-10-08T10:08:12;8.82;;;7.50;;
8478;SDS011;4276;49.354;6.804;2023-10-08T10:10:40;8.05;;;7.30;;
8478;SDS011;4276;49.354;6.804;2023-10-08T10:13:10;8.25;;;7.45;;
8478;SDS011;4276;49.354;6.804;2023-10-08T10:15:37;7.85;;;7.05;;
8478;SDS011;4276;49.354;6.804;2023-10-08T10:20:44;9.60;;;8.00;;
8478;SDS011;4276;49.354;6.804;2023-10-08T10:31:38;9.98;;;7.07;;
8478;SDS011;4276;49.354;6.804;2023-10-08T10:34:08;6.93;;;6.30;;
8478;SDS011;4276;49.354;6.804;2023-10-08T10:36:35;7.35;;;6.65;;
8478;SDS011;4276;49.354;6.804;2023-10-08T10:39:03;6.40;;;5.82;;
8478;SDS011;4276;49.354;6.804;2023-10-08T10:41:46;7.28;;;5.82;;
8478;SDS011;4276;49.354;6.804;2023-10-08T10:44:16;8.80;;;6.05;;
8478;SDS011;4276;49.354;6.804;2023-10-08T10:46:45;6.50;;;5.70;;
8478;SDS011;4276;49.354;6.804;2023-10-08T10:49:18;6.22;;;5.57;;
8478;SDS011;4276;49.354;6.804;2023-10-08T10:51:48;6.07;;;5.40;;
8478;SDS011;4276;49.354;6.804;2023-10-08T10:54:21;7.38;;;5.60;;
8478;SDS011;4276;49.354;6.804;2023-10-08T10:56:50;6.95;;;5.65;;
8478;SDS011;4276;49.354;6.804;2023-10-08T10:59:30;8.73;;;5.72;;
8478;SDS011;4276;49.354;6.804;2023-10-08T11:02:06;6.47;;;5.88;;
8478;SDS011;4276;49.354;6.804;2023-10-08T11:04:32;6.05;;;5.53;;
8478;SDS011;4276;49.354;6.804;2023-10-08T11:07:11;6.90;;;5.20;;
8478;SDS011;4276;49.354;6.804;2023-10-08T11:09:38;7.18;;;5.25;;
8478;SDS011;4276;49.354;6.804;2023-10-08T11:12:08;5.05;;;4.47;;
8478;SDS011;4276;49.354;6.804;2023-10-08T11:14:41;6.50;;;4.43;;
8478;SDS011;4276;49.354;6.804;2023-10-08T11:17:12;6.82;;;4.75;;
8478;SDS011;4276;49.354;6.804;2023-10-08T11:19:42;5.00;;;4.50;;
8478;SDS011;4276;49.354;6.804;2023-10-08T11:22:15;4.65;;;4.25;;
8478;SDS011;4276;49.354;6.804;2023-10-08T11:24:45;4.40;;;4.00;;
8478;SDS011;4276;49.354;6.804;2023-10-08T11:27:16;4.90;;;4.25;;
8478;SDS011;4276;49.354;6.804;2023-10-08T11:29:45;4.82;;;4.32;;
8478;SDS011;4276;49.354;6.804;2023-10-08T11:32:13;4.95;;;4.43;;
8478;SDS011;4276;49.354;6.804;2023-10-08T11:34:46;4.50;;;4.10;;
8478;SDS011;4276;49.354;6.804;2023-10-08T11:37:27;5.47;;;4.60;;
8478;SDS011;4276;49.354;6.804;2023-10-08T11:40:00;5.88;;;4.78;;
8478;SDS011;4276;49.354;6.804;2023-10-08T11:42:43;4.85;;;4.28;;
8478;SDS011;4276;49.354;6.804;2023-10-08T11:45:11;5.68;;;4.63;;
8478;SDS011;4276;49.354;6.804;2023-10-08T11:47:51;4.97;;;4.30;;
8478;SDS011;4276;49.354;6.804;2023-10-08T11:50:28;4.90;;;4.25;;
8478;SDS011;4276;49.354;6.804;2023-10-08T11:52:59;5.35;;;4.47;;
8478;SDS011;4276;49.354;6.804;2023-10-08T11:55:30;7.35;;;5.00;;
8478;SDS011;4276;49.354;6.804;2023-10-08T11:58:02;6.85;;;4.13;;
8478;SDS011;4276;49.354;6.804;2023-10-08T12:00:41;4.93;;;4.50;;
8478;SDS011;4276;49.354;6.804;2023-10-08T12:03:14;5.50;;;4.68;;
8478;SDS011;4276;49.354;6.804;2023-10-08T12:05:49;4.60;;;4.03;;
8478;SDS011;4276;49.354;6.804;2023-10-08T12:08:25;5.32;;;4.10;;
8478;SDS011;4276;49.354;6.804;2023-10-08T12:10:53;5.88;;;4.80;;
8478;SDS011;4276;49.354;6.804;2023-10-08T12:13:21;7.35;;;4.57;;
8478;SDS011;4276;49.354;6.804;2023-10-08T12:15:52;7.28;;;4.72;;
8478;SDS011;4276;49.354;6.804;2023-10-08T12:18:32;6.78;;;4.80;;
8478;SDS011;4276;49.354;6.804;2023-10-08T12:21:06;5.82;;;4.57;;
8478;SDS011;4276;49.354;6.804;2023-10-08T12:23:43;8.20;;;4.85;;
8478;SDS011;4276;49.354;6.804;2023-10-08T12:26:14;5.82;;;4.53;;
8478;SDS011;4276;49.354;6.804;2023-10-08T12:28:48;6.00;;;4.90;;
8478;SDS011;4276;49.354;6.804;2023-10-08T12:31:15;7.18;;;4.72;;
8478;SDS011;4276;49.354;6.804;2023-10-08T12:33:43;6.05;;;4.78;;
8478;SDS011;4276;49.354;6.804;2023-10-08T12:36:10;6.57;;;4.68;;
8478;SDS011;4276;49.354;6.804;2023-10-08T12:38:41;6.13;;;4.40;;
8478;SDS011;4276;49.354;6.804;2023-10-08T12:41:09;5.07;;;4.55;;
8478;SDS011;4276;49.354;6.804;2023-10-08T12:43:40;6.68;;;4.60;;
8478;SDS011;4276;49.354;6.804;2023-10-08T12:46:19;5.57;;;4.63;;
8478;SDS011;4276;49.354;6.804;2023-10-08T12:48:53;5.50;;;4.78;;
8478;SDS011;4276;49.354;6.804;2023-10-08T12:51:21;4.57;;;4.13;;
8478;SDS011;4276;49.354;6.804;2023-10-08T12:53:51;7.53;;;4.82;;
8478;SDS011;4276;49.354;6.804;2023-10-08T12:56:26;7.45;;;4.60;;
8478;SDS011;4276;49.354;6.804;2023-10-08T12:59:02;4.95;;;4.38;;
8478;SDS011;4276;49.354;6.804;2023-10-08T13:01:34;6.53;;;5.15;;
8478;SDS011;4276;49.354;6.804;2023-10-08T13:04:03;8.75;;;5.30;;
8478;SDS011;4276;49.354;6.804;2023-10-08T13:06:34;4.70;;;4.28;;
8478;SDS011;4276;49.354;6.804;2023-10-08T13:09:03;7.95;;;4.35;;
8478;SDS011;4276;49.354;6.804;2023-10-08T13:11:38;9.00;;;4.63;;
8478;SDS011;4276;49.354;6.804;2023-10-08T13:14:05;5.72;;;4.72;;
8478;SDS011;4276;49.354;6.804;2023-10-08T13:16:32;6.05;;;4.57;;
8478;SDS011;4276;49.354;6.804;2023-10-08T13:18:59;5.45;;;4.30;;
8478;SDS011;4276;49.354;6.804;2023-10-08T13:21:26;7.00;;;4.43;;
8478;SDS011;4276;49.354;6.804;2023-10-08T13:23:55;7.47;;;4.70;;
8478;SDS011;4276;49.354;6.804;2023-10-08T13:26:29;8.48;;;4.93;;
8478;SDS011;4276;49.354;6.804;2023-10-08T13:28:59;7.43;;;5.10;;
8478;SDS011;4276;49.354;6.804;2023-10-08T13:31:26;7.95;;;4.75;;
8478;SDS011;4276;49.354;6.804;2023-10-08T13:33:53;7.10;;;5.13;;
8478;SDS011;4276;49.354;6.804;2023-10-08T13:36:23;8.32;;;4.85;;
8478;SDS011;4276;49.354;6.804;2023-10-08T13:38:50;7.25;;;4.85;;
8478;SDS011;4276;49.354;6.804;2023-10-08T13:41:18;8.57;;;4.78;;
8478;SDS011;4276;49.354;6.804;2023-10-08T13:43:47;8.25;;;4.93;;
8478;SDS011;4276;49.354;6.804;2023-10-08T13:46:19;4.70;;;4.20;;
8478;SDS011;4276;49.354;6.804;2023-10-08T13:48:49;8.68;;;4.82;;
8478;SDS011;4276;49.354;6.804;2023-10-08T13:51:17;8.93;;;4.70;;
8478;SDS011;4276;49.354;6.804;2023-10-08T13:53:55;8.38;;;5.03;;
8478;SDS011;4276;49.354;6.804;2023-10-08T13:56:27;8.70;;;4.80;;
8478;SDS011;4276;49.354;6.804;2023-10-08T13:58:56;8.88;;;5.40;;
8478;SDS011;4276;49.354;6.804;2023-10-08T14:01:43;9.05;;;5.70;;
8478;SDS011;4276;49.354;6.804;2023-10-08T14:04:15;9.35;;;5.90;;
8478;SDS011;4276;49.354;6.804;2023-10-08T14:06:46;10.13;;;5.05;;
8478;SDS011;4276;49.354;6.804;2023-10-08T14:09:19;8.82;;;6.00;;
8478;SDS011;4276;49.354;6.804;2023-10-08T14:11:48;7.82;;;5.60;;
8478;SDS011;4276;49.354;6.804;2023-10-08T14:14:16;8.70;;;4.93;;
8478;SDS011;4276;49.354;6.804;2023-10-08T14:16:45;9.23;;;5.30;;
8478;SDS011;4276;49.354;6.804;2023-10-08T14:19:18;8.48;;;5.15;;
8478;SDS011;4276;49.354;6.804;2023-10-08T14:21:49;8.90;;;5.32;;
8478;SDS011;4276;49.354;6.804;2023-10-08T14:24:16;8.60;;;6.05;;
8478;SDS011;4276;49.354;6.804;2023-10-08T14:26:44;7.22;;;5.45;;
8478;SDS011;4276;49.354;6.804;2023-10-08T14:29:13;6.28;;;4.88;;
8478;SDS011;4276;49.354;6.804;2023-10-08T14:31:43;5.57;;;4.53;;
8478;SDS011;4276;49.354;6.804;2023-10-08T14:34:15;5.60;;;4.85;;
8478;SDS011;4276;49.354;6.804;2023-10-08T14:36:43;6.68;;;4.90;;
8478;SDS011;4276;49.354;6.804;2023-10-08T14:39:30;7.50;;;5.80;;
8478;SDS011;4276;49.354;6.804;2023-10-08T14:42:20;7.18;;;5.05;;
8478;SDS011;4276;49.354;6.804;2023-10-08T14:45:05;8.20;;;4.45;;
8478;SDS011;4276;49.354;6.804;2023-10-08T14:47:37;7.05;;;4.90;;
8478;SDS011;4276;49.354;6.804;2023-10-08T14:50:05;6.28;;;4.70;;
8478;SDS011;4276;49.354;6.804;2023-10-08T14:52:32;6.70;;;4.90;;
8478;SDS011;4276;49.354;6.804;2023-10-08T14:55:02;5.80;;;4.45;;
8478;SDS011;4276;49.354;6.804;2023-10-08T14:57:29;6.75;;;5.15;;
8478;SDS011;4276;49.354;6.804;2023-10-08T14:59:56;7.65;;;5.40;;
8478;SDS011;4276;49.354;6.804;2023-10-08T15:02:24;8.07;;;5.13;;
8478;SDS011;4276;49.354;6.804;2023-10-08T15:04:55;7.80;;;4.65;;
8478;SDS011;4276;49.354;6.804;2023-10-08T15:07:23;7.55;;;4.57;;
8478;SDS011;4276;49.354;6.804;2023-10-08T15:09:50;5.68;;;4.55;;
8478;SDS011;4276;49.354;6.804;2023-10-08T15:12:16;8.65;;;5.00;;
8478;SDS011;4276;49.354;6.804;2023-10-08T15:14:43;7.18;;;4.70;;
8478;SDS011;4276;49.354;6.804;2023-10-08T15:17:10;7.45;;;4.85;;
8478;SDS011;4276;49.354;6.804;2023-10-08T15:19:37;8.75;;;5.00;;
8478;SDS011;4276;49.354;6.804;2023-10-08T15:22:04;6.72;;;5.22;;
8478;SDS011;4276;49.354;6.804;2023-10-08T15:24:32;7.88;;;4.70;;
8478;SDS011;4276;49.354;6.804;2023-10-08T15:27:02;8.30;;;5.25;;
8478;SDS011;4276;49.354;6.804;2023-10-08T15:29:30;12.25;;;5.18;;
8478;SDS011;4276;49.354;6.804;2023-10-08T15:31:57;7.38;;;5.10;;
8478;SDS011;4276;49.354;6.804;2023-10-08T15:34:24;7.63;;;4.82;;
8478;SDS011;4276;49.354;6.804;2023-10-08T15:37:03;7.45;;;4.90;;
8478;SDS011;4276;49.354;6.804;2023-10-08T15:39:30;7.60;;;4.90;;
8478;SDS011;4276;49.354;6.804;2023-10-08T15:41:56;7.25;;;5.40;;
8478;SDS011;4276;49.354;6.804;2023-10-08T15:44:23;9.88;;;5.47;;
8478;SDS011;4276;49.354;6.804;2023-10-08T15:46:50;7.47;;;4.85;;
8478;SDS011;4276;49.354;6.804;2023-10-08T15:49:17;7.47;;;5.63;;
8478;SDS011;4276;49.354;6.804;2023-10-08T15:51:47;9.80;;;6.78;;
8478;SDS011;4276;49.354;6.804;2023-10-08T15:54:14;5.80;;;5.20;;
8478;SDS011;4276;49.354;6.804;2023-10-08T15:56:43;11.60;;;5.18;;
8478;SDS011;4276;49.354;6.804;2023-10-08T15:59:09;10.98;;;5.35;;
8478;SDS011;4276;49.354;6.804;2023-10-08T16:01:39;7.40;;;4.55;;
8478;SDS011;4276;49.354;6.804;2023-10-08T16:04:07;5.78;;;4.97;;
8478;SDS011;4276;49.354;6.804;2023-10-08T16:06:36;7.50;;;4.93;;